sensor_id;sensor_type;location;lat;lon;timestamp;temperature;humidity
5286;DHT22;2665;53.112;7.358;2023-04-26T01:29:54;2.60;1.00
5286;DHT22;2665;53.112;7.358;2023-04-26T01:32:19;2.50;1.00
5286;DHT22;2665;53.112;7.358;2023-04-26T01:34:45;2.50;99.90
5286;DHT22;2665;53.112;7.358;2023-04-26T01:37:11;2.50;1.00
5286;DHT22;2665;53.112;7.358;2023-04-26T01:39:36;2.50;1.00
5286;DHT22;2665;53.112;7.358;2023-04-26T01:42:03;2.50;33.20
5286;DHT22;2665;53.112;7.358;2023-04-26T01:44:29;2.50;1.00
5286;DHT22;2665;53.112;7.358;2023-04-26T01:46:55;2.60;99.90
5286;DHT22;2665;53.112;7.358;2023-04-26T01:49:21;2.60;99.90
5286;DHT22;2665;53.112;7.358;2023-04-26T01:51:47;2.70;99.90
5286;DHT22;2665;53.112;7.358;2023-04-26T01:54:12;2.70;99.90
5286;DHT22;2665;53.112;7.358;2023-04-26T01:56:38;2.80;36.60
5286;DHT22;2665;53.112;7.358;2023-04-26T01:59:03;2.80;35.80
5286;DHT22;2665;53.112;7.358;2023-04-26T02:01:29;2.80;14.70
5286;DHT22;2665;53.112;7.358;2023-04-26T02:03:55;2.80;1.00
5286;DHT22;2665;53.112;7.358;2023-04-26T02:06:21;2.80;1.00
5286;DHT22;2665;53.112;7.358;2023-04-26T02:08:46;2.90;1.00
5286;DHT22;2665;53.112;7.358;2023-04-26T02:11:12;2.90;1.00
5286;DHT22;2665;53.112;7.358;2023-04-26T02:13:38;2.90;1.00
5286;DHT22;2665;53.112;7.358;2023-04-26T02:16:04;2.90;99.90
5286;DHT22;2665;53.112;7.358;2023-04-26T02:18:29;2.90;99.90
5286;DHT22;2665;53.112;7.358;2023-04-26T02:20:55;2.90;99.90
5286;DHT22;2665;53.112;7.358;2023-04-26T02:23:21;2.80;99.90
5286;DHT22;2665;53.112;7.358;2023-04-26T02:25:48;2.80;99.90
5286;DHT22;2665;53.112;7.358;2023-04-26T02:28:14;2.90;1.00
5286;DHT22;2665;53.112;7.358;2023-04-26T02:30:40;2.90;1.00
5286;DHT22;2665;53.112;7.358;2023-04-26T02:33:06;2.90;1.00
5286;DHT22;2665;53.112;7.358;2023-04-26T02:35:34;2.90;99.90
5286;DHT22;2665;53.112;7.358;2023-04-26T02:37:59;3.00;1.00
5286;DHT22;2665;53.112;7.358;2023-04-26T02:40:25;2.90;1.00
5286;DHT22;2665;53.112;7.358;2023-04-26T02:42:51;2.90;99.90
5286;DHT22;2665;53.112;7.358;2023-04-26T02:45:16;2.90;1.00
5286;DHT22;2665;53.112;7.358;2023-04-26T02:47:42;2.90;99.90
5286;DHT22;2665;53.112;7.358;2023-04-26T02:50:08;2.90;1.00
5286;DHT22;2665;53.112;7.358;2023-04-26T02:52:35;2.90;1.00
5286;DHT22;2665;53.112;7.358;2023-04-26T02:55:02;2.90;1.00
5286;DHT22;2665;53.112;7.358;2023-04-26T02:57:29;2.80;99.90
5286;DHT22;2665;53.112;7.358;2023-04-26T02:59:54;2.80;99.90
5286;DHT22;2665;53.112;7.358;2023-04-26T03:02:20;2.70;99.90
5286;DHT22;2665;53.112;7.358;2023-04-26T03:04:46;2.70;99.90
5286;DHT22;2665;53.112;7.358;2023-04-26T03:07:12;2.70;99.90
5286;DHT22;2665;53.112;7.358;2023-04-26T03:09:38;2.70;1.00
5286;DHT22;2665;53.112;7.358;2023-04-26T03:12:05;2.60;1.00
5286;DHT22;2665;53.112;7.358;2023-04-26T03:14:31;2.60;99.90
5286;DHT22;2665;53.112;7.358;2023-04-26T03:16:58;2.60;11.20
5286;DHT22;2665;53.112;7.358;2023-04-26T03:19:23;2.60;1.00
5286;DHT22;2665;53.112;7.358;2023-04-26T03:21:49;2.60;1.00
5286;DHT22;2665;53.112;7.358;2023-04-26T03:24:15;2.50;99.90
5286;DHT22;2665;53.112;7.358;2023-04-26T03:26:40;2.50;99.90
5286;DHT22;2665;53.112;7.358;2023-04-26T03:29:06;2.50;99.90
5286;DHT22;2665;53.112;7.358;2023-04-26T03:31:32;2.40;99.90
5286;DHT22;2665;53.112;7.358;2023-04-26T03:33:57;2.40;1.00
5286;DHT22;2665;53.112;7.358;2023-04-26T03:36:23;2.40;99.90
5286;DHT22;2665;53.112;7.358;2023-04-26T03:38:48;2.40;99.90
5286;DHT22;2665;53.112;7.358;2023-04-26T03:41:14;2.50;99.90
5286;DHT22;2665;53.112;7.358;2023-04-26T03:43:39;2.50;99.90
5286;DHT22;2665;53.112;7.358;2023-04-26T03:46:05;2.50;1.00
5286;DHT22;2665;53.112;7.358;2023-04-26T03:48:31;2.50;1.00
5286;DHT22;2665;53.112;7.358;2023-04-26T03:50:56;2.50;1.00
5286;DHT22;2665;53.112;7.358;2023-04-26T03:53:22;2.50;1.00
5286;DHT22;2665;53.112;7.358;2023-04-26T03:55:47;2.40;1.00
5286;DHT22;2665;53.112;7.358;2023-04-26T03:58:13;2.40;1.00
5286;DHT22;2665;53.112;7.358;2023-04-26T04:00:39;2.40;1.00
5286;DHT22;2665;53.112;7.358;2023-04-26T04:03:07;2.30;1.00
5286;DHT22;2665;53.112;7.358;2023-04-26T04:05:32;2.30;1.00
5286;DHT22;2665;53.112;7.358;2023-04-26T04:07:58;2.20;1.00
5286;DHT22;2665;53.112;7.358;2023-04-26T04:10:24;2.20;99.90
5286;DHT22;2665;53.112;7.358;2023-04-26T04:12:50;2.20;99.90
5286;DHT22;2665;53.112;7.358;2023-04-26T04:15:17;2.20;99.90
5286;DHT22;2665;53.112;7.358;2023-04-26T04:17:43;2.10;1.00
5286;DHT22;2665;53.112;7.358;2023-04-26T04:20:09;2.20;1.00
5286;DHT22;2665;53.112;7.358;2023-04-26T04:22:35;2.20;1.00
5286;DHT22;2665;53.112;7.358;2023-04-26T04:25:01;2.30;1.00
5286;DHT22;2665;53.112;7.358;2023-04-26T04:27:29;2.30;1.00
5286;DHT22;2665;53.112;7.358;2023-04-26T04:29:54;2.40;1.00
5286;DHT22;2665;53.112;7.358;2023-04-26T04:32:21;2.50;1.00
5286;DHT22;2665;53.112;7.358;2023-04-26T04:34:48;2.60;1.00
5286;DHT22;2665;53.112;7.358;2023-04-26T04:37:14;2.70;99.90
5286;DHT22;2665;53.112;7.358;2023-04-26T04:39:40;2.80;99.90
5286;DHT22;2665;53.112;7.358;2023-04-26T04:42:06;2.80;99.90
5286;DHT22;2665;53.112;7.358;2023-04-26T04:44:31;2.90;1.00
5286;DHT22;2665;53.112;7.358;2023-04-26T04:46:57;2.90;1.00
5286;DHT22;2665;53.112;7.358;2023-04-26T04:49:22;3.00;1.00
5286;DHT22;2665;53.112;7.358;2023-04-26T04:51:50;3.00;99.90
5286;DHT22;2665;53.112;7.358;2023-04-26T04:54:16;3.10;13.70
5286;DHT22;2665;53.112;7.358;2023-04-26T04:56:43;3.20;1.00
5286;DHT22;2665;53.112;7.358;2023-04-26T04:59:10;3.20;1.00
5286;DHT22;2665;53.112;7.358;2023-04-26T05:01:35;3.30;99.90
5286;DHT22;2665;53.112;7.358;2023-04-26T05:04:03;3.30;1.00
5286;DHT22;2665;53.112;7.358;2023-04-26T05:06:29;3.30;1.00
5286;DHT22;2665;53.112;7.358;2023-04-26T05:08:56;3.30;1.00
5286;DHT22;2665;53.112;7.358;2023-04-26T05:11:22;3.40;1.00
5286;DHT22;2665;53.112;7.358;2023-04-26T05:13:48;3.40;1.00
5286;DHT22;2665;53.112;7.358;2023-04-26T05:16:14;3.50;99.90
5286;DHT22;2665;53.112;7.358;2023-04-26T05:18:40;3.40;1.00
5286;DHT22;2665;53.112;7.358;2023-04-26T05:21:05;3.40;1.00
5286;DHT22;2665;53.112;7.358;2023-04-26T05:23:32;3.50;1.00
5286;DHT22;2665;53.112;7.358;2023-04-26T05:26:03;3.40;1.00
5286;DHT22;2665;53.112;7.358;2023-04-26T05:28:29;3.50;1.00
5286;DHT22;2665;53.112;7.358;2023-04-26T05:30:55;3.50;1.00
5286;DHT22;2665;53.112;7.358;2023-04-26T05:33:21;3.50;1.00
5286;DHT22;2665;53.112;7.358;2023-04-26T05:35:47;3.60;99.90
5286;DHT22;2665;53.112;7.358;2023-04-26T05:38:13;3.60;99.90
5286;DHT22;2665;53.112;7.358;2023-04-26T05:40:38;3.60;99.90
5286;DHT22;2665;53.112;7.358;2023-04-26T05:43:04;3.70;99.90
5286;DHT22;2665;53.112;7.358;2023-04-26T05:45:29;3.80;99.90
5286;DHT22;2665;53.112;7.358;2023-04-26T05:47:55;3.90;99.90
5286;DHT22;2665;53.112;7.358;2023-04-26T05:50:20;4.00;58.00
5286;DHT22;2665;53.112;7.358;2023-04-26T05:52:46;4.10;1.00
5286;DHT22;2665;53.112;7.358;2023-04-26T05:55:12;4.20;99.90
5286;DHT22;2665;53.112;7.358;2023-04-26T05:57:38;4.30;1.00
5286;DHT22;2665;53.112;7.358;2023-04-26T06:00:04;4.40;1.00
5286;DHT22;2665;53.112;7.358;2023-04-26T06:02:30;4.50;99.90
5286;DHT22;2665;53.112;7.358;2023-04-26T06:04:56;4.60;99.90
5286;DHT22;2665;53.112;7.358;2023-04-26T06:07:22;4.70;99.90
5286;DHT22;2665;53.112;7.358;2023-04-26T06:09:47;4.80;1.00
5286;DHT22;2665;53.112;7.358;2023-04-26T06:12:13;4.90;1.00
5286;DHT22;2665;53.112;7.358;2023-04-26T06:14:38;5.10;1.00
5286;DHT22;2665;53.112;7.358;2023-04-26T06:17:04;5.20;1.00
5286;DHT22;2665;53.112;7.358;2023-04-26T06:19:30;5.30;1.00
5286;DHT22;2665;53.112;7.358;2023-04-26T06:21:55;5.30;99.90
5286;DHT22;2665;53.112;7.358;2023-04-26T10:48:17;9.20;93.10
5286;DHT22;2665;53.112;7.358;2023-04-26T10:51:10;9.20;99.90
5286;DHT22;2665;53.112;7.358;2023-04-26T10:59:14;10.20;90.90
5286;DHT22;2665;53.112;7.358;2023-04-26T11:01:44;10.50;84.50
5286;DHT22;2665;53.112;7.358;2023-04-26T11:04:11;10.50;81.70
5286;DHT22;2665;53.112;7.358;2023-04-26T11:06:50;10.60;73.90
5286;DHT22;2665;53.112;7.358;2023-04-26T11:09:48;10.60;64.00
5286;DHT22;2665;53.112;7.358;2023-04-26T11:12:15;10.50;60.50
5286;DHT22;2665;53.112;7.358;2023-04-26T11:14:44;10.60;58.20
5286;DHT22;2665;53.112;7.358;2023-04-26T11:17:13;10.60;55.30
5286;DHT22;2665;53.112;7.358;2023-04-26T11:19:40;11.30;56.30
5286;DHT22;2665;53.112;7.358;2023-04-26T11:22:07;11.50;49.50
5286;DHT22;2665;53.112;7.358;2023-04-26T11:24:34;11.20;42.70
5286;DHT22;2665;53.112;7.358;2023-04-26T11:27:09;10.90;60.80
5286;DHT22;2665;53.112;7.358;2023-04-26T11:29:36;10.90;46.30
5286;DHT22;2665;53.112;7.358;2023-04-26T11:32:02;11.20;45.80
5286;DHT22;2665;53.112;7.358;2023-04-26T11:34:32;10.70;41.80
5286;DHT22;2665;53.112;7.358;2023-04-26T11:37:00;10.20;41.50
5286;DHT22;2665;53.112;7.358;2023-04-26T11:39:26;9.70;43.30
5286;DHT22;2665;53.112;7.358;2023-04-26T11:42:03;9.30;43.60
5286;DHT22;2665;53.112;7.358;2023-04-26T11:44:29;9.00;46.40
5286;DHT22;2665;53.112;7.358;2023-04-26T11:46:55;8.80;50.10
5286;DHT22;2665;53.112;7.358;2023-04-26T11:49:20;8.40;52.90
5286;DHT22;2665;53.112;7.358;2023-04-26T11:51:47;8.00;67.10
5286;DHT22;2665;53.112;7.358;2023-04-26T11:54:29;7.80;91.20
5286;DHT22;2665;53.112;7.358;2023-04-26T11:56:56;7.50;90.00
5286;DHT22;2665;53.112;7.358;2023-04-26T11:59:25;7.40;93.70
5286;DHT22;2665;53.112;7.358;2023-04-26T12:01:52;7.60;99.90
5286;DHT22;2665;53.112;7.358;2023-04-26T12:04:18;7.90;99.90
5286;DHT22;2665;53.112;7.358;2023-04-26T12:06:44;8.30;99.90
5286;DHT22;2665;53.112;7.358;2023-04-26T12:09:11;8.80;99.90
5286;DHT22;2665;53.112;7.358;2023-04-26T12:11:37;9.20;99.90
5286;DHT22;2665;53.112;7.358;2023-04-26T12:14:03;9.60;99.90
5286;DHT22;2665;53.112;7.358;2023-04-26T12:16:30;10.10;99.90
5286;DHT22;2665;53.112;7.358;2023-04-26T12:18:56;10.20;99.90
5286;DHT22;2665;53.112;7.358;2023-04-26T12:21:22;10.10;99.90
5286;DHT22;2665;53.112;7.358;2023-04-26T12:23:49;9.90;99.90
5286;DHT22;2665;53.112;7.358;2023-04-26T12:26:15;9.60;99.90
5286;DHT22;2665;53.112;7.358;2023-04-26T12:28:41;9.20;99.90
5286;DHT22;2665;53.112;7.358;2023-04-26T12:31:07;8.90;99.90
5286;DHT22;2665;53.112;7.358;2023-04-26T12:33:33;8.70;99.90
5286;DHT22;2665;53.112;7.358;2023-04-26T12:36:09;8.50;99.90
5286;DHT22;2665;53.112;7.358;2023-04-26T12:38:35;8.30;99.90
5286;DHT22;2665;53.112;7.358;2023-04-26T13:49:25;9.10;99.90
5286;DHT22;2665;53.112;7.358;2023-04-26T13:51:52;9.10;99.90
5286;DHT22;2665;53.112;7.358;2023-04-26T13:54:19;9.30;99.90
5286;DHT22;2665;53.112;7.358;2023-04-26T13:56:46;9.30;99.90
5286;DHT22;2665;53.112;7.358;2023-04-26T13:59:12;9.50;99.90
5286;DHT22;2665;53.112;7.358;2023-04-26T14:01:38;9.80;99.90
5286;DHT22;2665;53.112;7.358;2023-04-26T14:04:05;10.20;99.90
5286;DHT22;2665;53.112;7.358;2023-04-26T14:06:32;10.50;99.90
5286;DHT22;2665;53.112;7.358;2023-04-26T14:08:58;10.70;95.20
5286;DHT22;2665;53.112;7.358;2023-04-26T14:11:24;11.20;96.50
5286;DHT22;2665;53.112;7.358;2023-04-26T14:13:50;11.70;87.80
5286;DHT22;2665;53.112;7.358;2023-04-26T14:16:23;12.10;80.90
5286;DHT22;2665;53.112;7.358;2023-04-26T14:18:49;12.10;75.80
5286;DHT22;2665;53.112;7.358;2023-04-26T14:21:15;12.00;65.90
5286;DHT22;2665;53.112;7.358;2023-04-26T14:23:41;12.10;53.60
5286;DHT22;2665;53.112;7.358;2023-04-26T14:26:07;11.60;47.20
5286;DHT22;2665;53.112;7.358;2023-04-26T14:28:32;11.00;46.20
5286;DHT22;2665;53.112;7.358;2023-04-26T14:30:58;10.50;46.70
5286;DHT22;2665;53.112;7.358;2023-04-26T14:33:25;10.10;47.80
5286;DHT22;2665;53.112;7.358;2023-04-26T14:35:50;9.90;53.00
5286;DHT22;2665;53.112;7.358;2023-04-26T14:38:17;9.70;54.30
5286;DHT22;2665;53.112;7.358;2023-04-26T14:40:42;9.50;55.40
5286;DHT22;2665;53.112;7.358;2023-04-26T14:43:09;9.30;56.40
5286;DHT22;2665;53.112;7.358;2023-04-26T14:45:35;9.20;57.70
5286;DHT22;2665;53.112;7.358;2023-04-26T14:48:01;9.00;60.30
5286;DHT22;2665;53.112;7.358;2023-04-26T14:50:27;8.90;64.00
5286;DHT22;2665;53.112;7.358;2023-04-26T14:52:54;8.70;65.70
5286;DHT22;2665;53.112;7.358;2023-04-26T14:55:20;8.60;68.70
5286;DHT22;2665;53.112;7.358;2023-04-26T14:57:49;8.40;72.90
5286;DHT22;2665;53.112;7.358;2023-04-26T15:00:15;8.30;76.40
5286;DHT22;2665;53.112;7.358;2023-04-26T15:02:44;8.20;78.40
5286;DHT22;2665;53.112;7.358;2023-04-26T15:05:10;8.20;82.60
5286;DHT22;2665;53.112;7.358;2023-04-26T15:07:37;8.10;85.10
5286;DHT22;2665;53.112;7.358;2023-04-26T15:10:04;8.10;89.30
5286;DHT22;2665;53.112;7.358;2023-04-26T15:12:30;8.10;90.30
5286;DHT22;2665;53.112;7.358;2023-04-26T15:14:56;8.10;91.20
5286;DHT22;2665;53.112;7.358;2023-04-26T15:17:22;8.00;92.20
5286;DHT22;2665;53.112;7.358;2023-04-26T15:19:48;8.00;92.80
5286;DHT22;2665;53.112;7.358;2023-04-26T15:22:13;7.90;93.40
5286;DHT22;2665;53.112;7.358;2023-04-26T15:24:39;7.90;93.50
5286;DHT22;2665;53.112;7.358;2023-04-26T15:27:05;7.90;94.00
5286;DHT22;2665;53.112;7.358;2023-04-26T15:29:33;7.90;94.60
5286;DHT22;2665;53.112;7.358;2023-04-26T15:31:59;7.90;94.90
5286;DHT22;2665;53.112;7.358;2023-04-26T15:34:25;7.90;95.40
5286;DHT22;2665;53.112;7.358;2023-04-26T15:36:52;7.90;96.00
5286;DHT22;2665;53.112;7.358;2023-04-26T15:39:18;7.90;96.40
5286;DHT22;2665;53.112;7.358;2023-04-26T15:41:44;7.90;97.50
5286;DHT22;2665;53.112;7.358;2023-04-26T15:44:10;7.80;99.90
5286;DHT22;2665;53.112;7.358;2023-04-26T15:46:36;7.80;99.90
5286;DHT22;2665;53.112;7.358;2023-04-26T15:49:01;7.90;99.90
5286;DHT22;2665;53.112;7.358;2023-04-26T15:51:27;7.90;99.90
5286;DHT22;2665;53.112;7.358;2023-04-26T15:53:53;8.00;99.90
5286;DHT22;2665;53.112;7.358;2023-04-26T15:56:18;8.10;99.90
5286;DHT22;2665;53.112;7.358;2023-04-26T15:58:45;8.20;99.90
5286;DHT22;2665;53.112;7.358;2023-04-26T16:01:11;8.30;99.90
5286;DHT22;2665;53.112;7.358;2023-04-26T16:03:37;8.30;99.90
5286;DHT22;2665;53.112;7.358;2023-04-26T16:06:03;8.20;99.90
5286;DHT22;2665;53.112;7.358;2023-04-26T16:08:29;8.20;99.90
5286;DHT22;2665;53.112;7.358;2023-04-26T16:10:58;8.10;99.90
5286;DHT22;2665;53.112;7.358;2023-04-26T16:13:25;8.10;99.90
5286;DHT22;2665;53.112;7.358;2023-04-26T16:15:51;8.10;99.90
5286;DHT22;2665;53.112;7.358;2023-04-26T16:18:17;8.10;99.90
5286;DHT22;2665;53.112;7.358;2023-04-26T16:20:47;8.10;99.90
5286;DHT22;2665;53.112;7.358;2023-04-26T16:23:14;8.10;99.90
5286;DHT22;2665;53.112;7.358;2023-04-26T16:25:40;8.10;99.90
5286;DHT22;2665;53.112;7.358;2023-04-26T16:28:06;8.20;99.90
5286;DHT22;2665;53.112;7.358;2023-04-26T16:30:34;8.20;99.90
5286;DHT22;2665;53.112;7.358;2023-04-26T16:32:59;8.30;99.90
5286;DHT22;2665;53.112;7.358;2023-04-26T16:35:25;8.30;99.90
5286;DHT22;2665;53.112;7.358;2023-04-26T16:37:51;8.30;99.90
5286;DHT22;2665;53.112;7.358;2023-04-26T16:40:17;8.30;99.90
5286;DHT22;2665;53.112;7.358;2023-04-26T16:42:42;8.30;99.90
5286;DHT22;2665;53.112;7.358;2023-04-26T16:45:12;8.30;99.90
5286;DHT22;2665;53.112;7.358;2023-04-26T16:47:37;8.30;99.90
5286;DHT22;2665;53.112;7.358;2023-04-26T16:50:03;8.20;99.90
5286;DHT22;2665;53.112;7.358;2023-04-26T16:52:32;8.20;99.90
5286;DHT22;2665;53.112;7.358;2023-04-26T16:54:57;8.20;99.90
5286;DHT22;2665;53.112;7.358;2023-04-26T16:57:23;8.20;99.90
5286;DHT22;2665;53.112;7.358;2023-04-26T16:59:49;8.20;99.90
5286;DHT22;2665;53.112;7.358;2023-04-26T17:02:16;8.10;99.90
5286;DHT22;2665;53.112;7.358;2023-04-26T17:04:42;8.10;99.90
5286;DHT22;2665;53.112;7.358;2023-04-26T17:07:08;8.10;99.90
5286;DHT22;2665;53.112;7.358;2023-04-26T17:09:33;8.10;99.90
5286;DHT22;2665;53.112;7.358;2023-04-26T17:11:59;8.10;99.90
5286;DHT22;2665;53.112;7.358;2023-04-26T17:14:25;8.10;99.90
5286;DHT22;2665;53.112;7.358;2023-04-26T17:16:51;8.10;99.90
5286;DHT22;2665;53.112;7.358;2023-04-26T17:19:16;8.10;99.90
5286;DHT22;2665;53.112;7.358;2023-04-26T17:21:42;8.20;99.90
5286;DHT22;2665;53.112;7.358;2023-04-26T17:24:08;8.70;99.90
5286;DHT22;2665;53.112;7.358;2023-04-26T17:26:33;9.10;99.90
5286;DHT22;2665;53.112;7.358;2023-04-26T17:28:59;9.50;99.90
5286;DHT22;2665;53.112;7.358;2023-04-26T17:31:25;9.90;99.90
5286;DHT22;2665;53.112;7.358;2023-04-26T17:33:50;10.10;98.70
5286;DHT22;2665;53.112;7.358;2023-04-26T17:36:16;10.10;95.30
5286;DHT22;2665;53.112;7.358;2023-04-26T17:38:42;10.10;95.00
5286;DHT22;2665;53.112;7.358;2023-04-26T17:41:10;10.40;96.50
5286;DHT22;2665;53.112;7.358;2023-04-26T17:43:37;10.50;94.90
5286;DHT22;2665;53.112;7.358;2023-04-26T17:46:02;10.70;94.00
5286;DHT22;2665;53.112;7.358;2023-04-26T17:48:28;10.30;91.90
5286;DHT22;2665;53.112;7.358;2023-04-26T17:50:54;10.00;90.90
5286;DHT22;2665;53.112;7.358;2023-04-26T17:53:20;10.00;91.90
5286;DHT22;2665;53.112;7.358;2023-04-26T17:55:46;10.00;90.90
5286;DHT22;2665;53.112;7.358;2023-04-26T17:58:12;10.00;91.00
5286;DHT22;2665;53.112;7.358;2023-04-26T18:00:38;9.90;90.60
5286;DHT22;2665;53.112;7.358;2023-04-26T18:03:03;9.60;89.80
5286;DHT22;2665;53.112;7.358;2023-04-26T18:05:29;9.10;88.70
5286;DHT22;2665;53.112;7.358;2023-04-26T18:07:56;8.60;73.00
5286;DHT22;2665;53.112;7.358;2023-04-26T18:10:22;8.30;91.00
5286;DHT22;2665;53.112;7.358;2023-04-26T18:12:47;8.10;91.00
5286;DHT22;2665;53.112;7.358;2023-04-26T18:15:13;7.80;92.20
5286;DHT22;2665;53.112;7.358;2023-04-26T18:17:39;7.70;93.70
5286;DHT22;2665;53.112;7.358;2023-04-26T18:20:06;7.60;93.90
5286;DHT22;2665;53.112;7.358;2023-04-26T18:22:32;7.40;94.80
5286;DHT22;2665;53.112;7.358;2023-04-26T18:24:57;7.30;95.20
5286;DHT22;2665;53.112;7.358;2023-04-26T18:27:23;7.20;96.60
5286;DHT22;2665;53.112;7.358;2023-04-26T18:29:49;7.10;97.60
5286;DHT22;2665;53.112;7.358;2023-04-26T18:32:15;6.90;98.20
5286;DHT22;2665;53.112;7.358;2023-04-26T18:34:40;6.80;98.80
5286;DHT22;2665;53.112;7.358;2023-04-26T18:37:06;6.60;99.40
5286;DHT22;2665;53.112;7.358;2023-04-26T18:39:32;6.50;99.90
5286;DHT22;2665;53.112;7.358;2023-04-26T18:41:57;6.40;99.90
5286;DHT22;2665;53.112;7.358;2023-04-26T18:44:23;6.30;99.90
5286;DHT22;2665;53.112;7.358;2023-04-26T18:46:49;6.20;99.90
5286;DHT22;2665;53.112;7.358;2023-04-26T18:49:16;6.10;99.90
5286;DHT22;2665;53.112;7.358;2023-04-26T18:51:42;6.00;99.90
5286;DHT22;2665;53.112;7.358;2023-04-26T18:54:08;5.90;99.90
5286;DHT22;2665;53.112;7.358;2023-04-26T20:31:55;4.10;99.90
5286;DHT22;2665;53.112;7.358;2023-04-26T20:34:20;4.00;99.90
5286;DHT22;2665;53.112;7.358;2023-04-26T20:36:46;4.00;99.90
5286;DHT22;2665;53.112;7.358;2023-04-26T20:39:12;3.90;99.90
5286;DHT22;2665;53.112;7.358;2023-04-26T20:41:37;3.90;99.90
5286;DHT22;2665;53.112;7.358;2023-04-26T20:44:03;3.90;99.90
5286;DHT22;2665;53.112;7.358;2023-04-26T20:46:29;3.90;99.90
5286;DHT22;2665;53.112;7.358;2023-04-26T20:48:56;3.80;99.90
5286;DHT22;2665;53.112;7.358;2023-04-26T20:51:22;3.80;99.90
5286;DHT22;2665;53.112;7.358;2023-04-26T20:53:47;3.70;99.90
5286;DHT22;2665;53.112;7.358;2023-04-26T20:56:13;3.70;99.90
5286;DHT22;2665;53.112;7.358;2023-04-26T20:58:38;3.70;99.90
5286;DHT22;2665;53.112;7.358;2023-04-26T21:01:05;3.70;99.90
5286;DHT22;2665;53.112;7.358;2023-04-26T21:03:30;3.70;99.90
5286;DHT22;2665;53.112;7.358;2023-04-26T21:05:56;3.70;1.00
5286;DHT22;2665;53.112;7.358;2023-04-26T21:08:22;3.70;1.00
5286;DHT22;2665;53.112;7.358;2023-04-26T21:10:48;3.70;1.00
5286;DHT22;2665;53.112;7.358;2023-04-26T21:13:13;3.70;1.00
5286;DHT22;2665;53.112;7.358;2023-04-26T21:15:39;3.60;1.00
5286;DHT22;2665;53.112;7.358;2023-04-26T21:18:05;3.60;1.00
5286;DHT22;2665;53.112;7.358;2023-04-26T21:20:30;3.60;1.00
5286;DHT22;2665;53.112;7.358;2023-04-26T21:22:56;3.60;1.00
5286;DHT22;2665;53.112;7.358;2023-04-26T21:25:22;3.60;1.00
5286;DHT22;2665;53.112;7.358;2023-04-26T21:27:47;3.50;1.00
5286;DHT22;2665;53.112;7.358;2023-04-26T21:30:15;3.50;1.00
5286;DHT22;2665;53.112;7.358;2023-04-26T21:32:41;3.50;1.00
5286;DHT22;2665;53.112;7.358;2023-04-26T21:35:08;3.50;1.00
5286;DHT22;2665;53.112;7.358;2023-04-26T21:37:34;3.40;1.00
5286;DHT22;2665;53.112;7.358;2023-04-26T21:40:00;3.40;1.00
5286;DHT22;2665;53.112;7.358;2023-04-26T21:42:25;3.30;1.00
5286;DHT22;2665;53.112;7.358;2023-04-26T21:44:51;3.30;1.00
5286;DHT22;2665;53.112;7.358;2023-04-26T21:47:17;3.30;1.00
5286;DHT22;2665;53.112;7.358;2023-04-26T21:49:43;3.30;1.00
5286;DHT22;2665;53.112;7.358;2023-04-26T21:52:08;3.30;1.00
5286;DHT22;2665;53.112;7.358;2023-04-26T21:54:34;3.30;1.00
5286;DHT22;2665;53.112;7.358;2023-04-26T21:57:01;3.30;1.00
5286;DHT22;2665;53.112;7.358;2023-04-26T21:59:29;3.30;1.00
5286;DHT22;2665;53.112;7.358;2023-04-26T22:01:54;3.20;1.00
5286;DHT22;2665;53.112;7.358;2023-04-26T22:04:20;3.30;1.00
5286;DHT22;2665;53.112;7.358;2023-04-26T22:06:46;3.20;1.00
5286;DHT22;2665;53.112;7.358;2023-04-26T22:09:11;3.20;1.00
5286;DHT22;2665;53.112;7.358;2023-04-26T22:11:37;3.20;1.00
5286;DHT22;2665;53.112;7.358;2023-04-26T22:14:02;3.20;1.00
5286;DHT22;2665;53.112;7.358;2023-04-26T22:16:28;3.20;1.00
5286;DHT22;2665;53.112;7.358;2023-04-26T22:18:53;3.20;1.00
5286;DHT22;2665;53.112;7.358;2023-04-26T22:21:19;3.20;1.00
5286;DHT22;2665;53.112;7.358;2023-04-26T22:23:45;3.10;1.00
5286;DHT22;2665;53.112;7.358;2023-04-26T22:26:10;3.20;19.30
5286;DHT22;2665;53.112;7.358;2023-04-26T22:28:36;3.10;9.50
5286;DHT22;2665;53.112;7.358;2023-04-26T22:31:02;3.10;1.00
5286;DHT22;2665;53.112;7.358;2023-04-26T22:33:27;3.10;9.90
5286;DHT22;2665;53.112;7.358;2023-04-26T22:35:53;3.10;43.50
5286;DHT22;2665;53.112;7.358;2023-04-26T22:38:25;3.00;73.20
5286;DHT22;2665;53.112;7.358;2023-04-26T22:40:50;3.00;52.60
5286;DHT22;2665;53.112;7.358;2023-04-26T22:43:17;3.00;49.10
5286;DHT22;2665;53.112;7.358;2023-04-26T22:45:42;3.00;99.40
5286;DHT22;2665;53.112;7.358;2023-04-26T22:48:08;3.00;99.90
5286;DHT22;2665;53.112;7.358;2023-04-26T22:50:34;3.00;99.90
5286;DHT22;2665;53.112;7.358;2023-04-26T22:52:59;2.90;99.90
5286;DHT22;2665;53.112;7.358;2023-04-26T22:55:25;2.80;99.90
5286;DHT22;2665;53.112;7.358;2023-04-26T22:57:51;2.70;99.90
5286;DHT22;2665;53.112;7.358;2023-04-26T23:00:17;2.60;99.90
5286;DHT22;2665;53.112;7.358;2023-04-26T23:02:42;2.60;99.90
5286;DHT22;2665;53.112;7.358;2023-04-26T23:05:08;2.60;99.90
5286;DHT22;2665;53.112;7.358;2023-04-26T23:07:35;2.60;99.90
5286;DHT22;2665;53.112;7.358;2023-04-26T23:10:02;2.60;1.00
5286;DHT22;2665;53.112;7.358;2023-04-26T23:12:27;2.70;1.00
5286;DHT22;2665;53.112;7.358;2023-04-26T23:15:00;2.60;1.00
5286;DHT22;2665;53.112;7.358;2023-04-26T23:17:26;2.60;1.00
5286;DHT22;2665;53.112;7.358;2023-04-26T23:19:52;2.70;99.90
5286;DHT22;2665;53.112;7.358;2023-04-26T23:22:18;2.80;99.90
5286;DHT22;2665;53.112;7.358;2023-04-26T23:24:44;2.90;1.00
5286;DHT22;2665;53.112;7.358;2023-04-26T23:27:11;3.00;1.00
5286;DHT22;2665;53.112;7.358;2023-04-26T23:29:36;3.00;1.00
5286;DHT22;2665;53.112;7.358;2023-04-26T23:32:02;3.10;99.90
5286;DHT22;2665;53.112;7.358;2023-04-26T23:34:27;3.20;1.00
5286;DHT22;2665;53.112;7.358;2023-04-26T23:36:53;3.20;1.00
5286;DHT22;2665;53.112;7.358;2023-04-26T23:39:19;3.20;99.90
5286;DHT22;2665;53.112;7.358;2023-04-26T23:41:45;3.10;99.90
5286;DHT22;2665;53.112;7.358;2023-04-26T23:44:10;3.10;99.90
5286;DHT22;2665;53.112;7.358;2023-04-26T23:46:36;3.10;1.00
5286;DHT22;2665;53.112;7.358;2023-04-26T23:49:02;3.10;1.00
5286;DHT22;2665;53.112;7.358;2023-04-26T23:51:27;3.00;1.00
5286;DHT22;2665;53.112;7.358;2023-04-26T23:53:53;3.00;1.00
5286;DHT22;2665;53.112;7.358;2023-04-26T23:56:18;3.00;1.00
5286;DHT22;2665;53.112;7.358;2023-04-26T23:58:44;2.90;1.00
